Time;durP1;ratioP1;P1;durP2;ratioP2;P2;SDS_P1;SDS_P2;PMS_P1;PMS_P2;Temp;Humidity;BMP_temperature;BMP_pressure;BME280_temperature;BME280_humidity;BME280_pressure;Samples;Min_cycle;Max_cycle;Signal;HPM_P1;HPM_P2
2024/04/04 00:02:16;;;;;;;13.87;2.23;;;9.60;53.00;;;;;;4974337;28;36334;-80
2024/04/04 00:04:43;;;;;;;9.97;2.13;;;9.60;48.10;;;;;;4968672;28;36032;-79
2024/04/04 00:07:09;;;;;;;13.37;2.00;;;9.60;45.90;;;;;;4963723;28;39800;-79
2024/04/04 00:09:35;;;;;;;21.13;3.00;;;9.60;48.30;;;;;;4966651;28;37535;-79
2024/04/04 00:12:01;;;;;;;15.37;2.67;;;9.70;45.70;;;;;;4968642;28;37382;-80
2024/04/04 00:14:27;;;;;;;13.57;2.13;;;9.80;42.30;;;;;;4966402;28;35807;-79
2024/04/04 00:16:54;;;;;;;15.50;2.23;;;9.90;35.80;;;;;;4968668;28;39327;-79
2024/04/04 00:19:20;;;;;;;15.37;3.00;;;10.00;34.70;;;;;;4969026;28;38610;-79
2024/04/04 00:21:46;;;;;;;12.67;2.30;;;10.00;35.50;;;;;;4972835;28;38616;-80
2024/04/04 00:24:13;;;;;;;14.77;2.03;;;10.10;33.30;;;;;;4971333;28;37065;-79
2024/04/04 00:26:39;;;;;;;13.47;2.20;;;10.10;30.40;;;;;;4969558;28;38453;-79
2024/04/04 00:29:07;;;;;;;9.97;1.83;;;10.20;28.30;;;;;;4966864;28;38939;-80
2024/04/04 00:31:34;;;;;;;15.33;2.00;;;10.20;29.80;;;;;;4969556;28;38046;-81
2024/04/04 00:34:01;;;;;;;14.60;2.43;;;10.30;37.10;;;;;;4965020;28;36322;-80
2024/04/04 00:36:27;;;;;;;14.13;2.77;;;10.30;41.90;;;;;;4976796;28;47306;-79
2024/04/04 00:38:53;;;;;;;8.87;2.43;;;10.30;48.40;;;;;;4974458;28;38804;-80
2024/04/04 00:41:20;;;;;;;15.17;1.80;;;10.30;56.70;;;;;;4975786;28;38502;-80
2024/04/04 00:43:46;;;;;;;10.33;1.90;;;10.40;41.60;;;;;;4978288;28;36116;-80
2024/04/04 00:46:14;;;;;;;10.93;2.30;;;10.40;43.30;;;;;;4964200;28;37447;-79
2024/04/04 00:48:40;;;;;;;10.87;1.87;;;10.40;36.50;;;;;;4964050;28;37424;-79
2024/04/04 00:51:07;;;;;;;14.25;2.03;;;10.40;32.60;;;;;;4959502;28;36790;-81
2024/04/04 00:53:35;;;;;;;10.33;1.67;;;10.50;34.50;;;;;;4967017;28;36439;-78
2024/04/04 00:56:03;;;;;;;15.43;2.30;;;10.50;41.50;;;;;;4969695;28;37816;-80
2024/04/04 00:58:29;;;;;;;11.13;1.80;;;10.40;55.50;;;;;;4960421;28;47449;-79
2024/04/04 01:03:31;;;;;;;8.40;1.60;;;10.40;61.30;;;;;;5243595;23;20039;-79
2024/04/04 01:05:57;;;;;;;8.33;2.10;;;10.40;62.80;;;;;;4983350;28;38905;-79
2024/04/04 01:08:25;;;;;;;10.63;1.60;;;10.40;68.20;;;;;;4971511;28;38316;-79
2024/04/04 01:10:51;;;;;;;13.13;2.17;;;10.40;68.60;;;;;;4974730;28;38450;-80
2024/04/04 01:13:17;;;;;;;11.80;2.30;;;10.40;74.70;;;;;;4964484;28;36444;-80
2024/04/04 01:15:43;;;;;;;12.50;2.20;;;10.40;80.20;;;;;;4979319;28;40320;-80
2024/04/04 01:18:10;;;;;;;12.30;1.80;;;10.40;85.30;;;;;;4975739;28;37450;-79
2024/04/04 01:20:36;;;;;;;10.43;1.88;;;10.40;90.20;;;;;;4988053;28;38299;-80
2024/04/04 01:23:02;;;;;;;11.97;1.67;;;10.40;92.10;;;;;;4992511;28;37355;-80
2024/04/04 01:25:29;;;;;;;16.03;2.10;;;10.40;93.80;;;;;;4985200;28;40117;-80
2024/04/04 01:27:56;;;;;;;19.73;3.00;;;10.40;94.70;;;;;;4992049;28;37003;-80
2024/04/04 01:30:22;;;;;;;13.50;2.73;;;10.40;96.70;;;;;;4983329;28;39475;-80
2024/04/04 01:32:48;;;;;;;14.30;2.43;;;10.40;97.40;;;;;;5001051;28;37821;-80
2024/04/04 01:35:14;;;;;;;18.13;2.60;;;10.40;97.90;;;;;;4988895;28;37564;-81
2024/04/04 01:37:40;;;;;;;13.27;3.05;;;10.50;99.60;;;;;;4989181;28;39491;-81
2024/04/04 01:40:10;;;;;;;14.57;2.55;;;10.50;99.90;;;;;;4986229;28;37348;-79
2024/04/04 01:42:36;;;;;;;22.42;2.78;;;10.50;99.90;;;;;;4989195;28;36163;-79
2024/04/04 01:45:03;;;;;;;11.60;2.40;;;10.50;99.90;;;;;;4992223;28;40403;-79
2024/04/04 01:47:29;;;;;;;15.13;3.00;;;10.50;99.90;;;;;;4995304;28;37213;-80
2024/04/04 01:49:55;;;;;;;15.02;2.55;;;10.50;99.90;;;;;;4992297;28;38278;-78
2024/04/04 01:52:22;;;;;;;16.10;3.23;;;10.40;99.90;;;;;;4993247;28;37462;-80
2024/04/04 01:54:51;;;;;;;20.20;3.03;;;10.40;99.90;;;;;;4991571;28;38965;-79
2024/04/04 01:57:23;;;;;;;17.97;3.57;;;10.40;99.90;;;;;;4988861;28;37602;-80
2024/04/04 01:59:52;;;;;;;14.15;2.63;;;10.30;99.90;;;;;;4985193;28;36709;-80
2024/04/04 02:02:18;;;;;;;13.97;2.80;;;10.20;99.90;;;;;;5003087;28;37584;-79
2024/04/04 02:04:46;;;;;;;15.23;3.07;;;10.20;99.90;;;;;;4994930;28;38878;-80
2024/04/04 02:07:12;;;;;;;18.60;3.20;;;10.10;99.90;;;;;;4992547;28;37665;-79
2024/04/04 02:09:40;;;;;;;15.67;2.43;;;10.10;99.90;;;;;;4987102;28;37238;-79
2024/04/04 02:12:09;;;;;;;11.77;2.70;;;10.10;99.90;;;;;;4987109;28;36462;-79
2024/04/04 02:14:36;;;;;;;18.87;2.70;;;10.00;99.90;;;;;;4984822;28;38466;-79
2024/04/04 02:17:03;;;;;;;15.20;2.83;;;10.00;99.90;;;;;;4987831;28;40024;-80
2024/04/04 02:19:29;;;;;;;17.10;3.57;;;10.00;99.90;;;;;;4985066;28;37279;-79
2024/04/04 02:21:55;;;;;;;14.33;2.50;;;9.90;99.90;;;;;;4988436;28;37974;-78
2024/04/04 02:24:22;;;;;;;11.20;1.83;;;9.90;99.90;;;;;;4992952;28;37623;-79
2024/04/04 02:26:49;;;;;;;15.57;2.37;;;9.90;99.90;;;;;;4985961;28;39330;-78
2024/04/04 02:29:24;;;;;;;12.67;2.37;;;9.90;99.90;;;;;;4984977;28;37415;-79
2024/04/04 02:31:50;;;;;;;19.50;2.90;;;9.90;99.90;;;;;;4988818;28;36709;-79
2024/04/04 02:34:17;;;;;;;7.83;1.80;;;9.90;99.90;;;;;;4980519;28;37951;-78
2024/04/04 02:36:45;;;;;;;8.13;2.53;;;9.80;99.90;;;;;;4987389;28;37678;-79
2024/04/04 02:39:14;;;;;;;14.80;2.50;;;9.80;99.90;;;;;;4976179;28;38498;-78
2024/04/04 02:41:40;;;;;;;13.53;3.80;;;9.80;99.90;;;;;;4978706;28;37500;-79
2024/04/04 02:44:07;;;;;;;12.30;3.53;;;9.90;99.90;;;;;;4977074;28;37634;-79
2024/04/04 02:46:33;;;;;;;16.13;3.67;;;9.90;99.90;;;;;;4985099;28;37203;-79
2024/04/04 02:49:02;;;;;;;17.57;3.40;;;9.90;99.90;;;;;;4980991;28;38167;-77
2024/04/04 02:51:28;;;;;;;11.60;2.80;;;9.90;99.90;;;;;;4980207;28;48523;-79
2024/04/04 02:53:55;;;;;;;10.07;3.20;;;9.90;99.90;;;;;;4987408;28;40306;-79
2024/04/04 02:56:21;;;;;;;10.80;3.43;;;9.90;99.90;;;;;;4989770;28;37073;-79
2024/04/04 02:58:49;;;;;;;15.60;3.77;;;10.00;99.90;;;;;;4987768;28;38207;-80
2024/04/04 03:01:16;;;;;;;14.37;3.97;;;10.00;99.90;;;;;;4986929;28;36113;-78
2024/04/04 03:03:44;;;;;;;9.23;3.40;;;10.00;99.90;;;;;;4990726;28;40656;-77
2024/04/04 03:06:11;;;;;;;14.50;4.93;;;10.10;99.90;;;;;;4981384;28;40652;-79
2024/04/04 03:08:37;;;;;;;12.33;4.77;;;10.10;99.90;;;;;;4986661;28;38909;-80
2024/04/04 03:11:07;;;;;;;12.77;5.27;;;10.10;99.90;;;;;;4986714;28;35273;-79
2024/04/04 03:13:33;;;;;;;16.17;4.83;;;10.20;99.90;;;;;;4993852;28;38226;-80
2024/04/04 03:15:59;;;;;;;9.50;4.60;;;10.20;99.90;;;;;;4983154;28;37600;-79
2024/04/04 03:18:27;;;;;;;15.27;5.47;;;10.20;99.90;;;;;;4990937;28;38083;-80
2024/04/04 03:20:53;;;;;;;12.33;5.27;;;10.30;99.90;;;;;;5004756;28;36358;-79
2024/04/04 03:23:20;;;;;;;13.70;6.03;;;10.30;99.90;;;;;;4986308;28;38628;-79
2024/04/04 03:25:46;;;;;;;12.00;5.90;;;10.30;99.90;;;;;;4984127;28;38545;-79
2024/04/04 03:28:13;;;;;;;8.77;6.07;;;10.30;99.90;;;;;;4997234;28;39252;-79
2024/04/04 03:30:40;;;;;;;10.70;5.53;;;10.30;99.90;;;;;;4992357;28;37534;-80
2024/04/04 03:33:06;;;;;;;10.53;6.53;;;10.30;99.90;;;;;;4992970;28;38731;-79
2024/04/04 03:35:36;;;;;;;16.33;7.60;;;10.30;99.90;;;;;;4988102;28;39864;-80
2024/04/04 03:38:04;;;;;;;13.33;7.73;;;10.30;99.90;;;;;;5006832;28;37811;-80
2024/04/04 03:40:32;;;;;;;16.00;8.98;;;10.40;99.90;;;;;;5009453;28;38492;-79
2024/04/04 03:43:04;;;;;;;16.48;8.75;;;10.40;99.90;;;;;;4994002;28;40201;-79
2024/04/04 03:45:39;;;;;;;18.50;10.13;;;10.40;99.90;;;;;;4994032;28;50358;-80
2024/04/04 03:48:06;;;;;;;13.65;11.18;;;10.40;99.90;;;;;;4986642;28;36087;-80
2024/04/04 03:50:37;;;;;;;16.67;10.63;;;10.50;99.90;;;;;;4987888;28;36481;-81
2024/04/04 03:53:04;;;;;;;16.00;11.15;;;10.50;99.90;;;;;;4990977;28;39510;-80
2024/04/04 03:55:32;;;;;;;15.10;10.52;;;10.50;99.90;;;;;;4975480;28;36781;-81
2024/04/04 03:57:59;;;;;;;16.58;10.68;;;10.50;99.90;;;;;;4978462;28;38392;-80
2024/04/04 04:00:26;;;;;;;14.57;11.40;;;10.50;99.90;;;;;;4970941;28;37721;-80
2024/04/04 04:02:53;;;;;;;14.00;10.52;;;10.50;99.90;;;;;;4965379;28;39910;-80
2024/04/04 04:05:20;;;;;;;12.13;10.93;;;10.60;99.90;;;;;;4993404;28;37784;-81
2024/04/04 04:07:47;;;;;;;16.27;12.32;;;10.60;99.90;;;;;;5004978;28;37221;-80
2024/04/04 04:10:14;;;;;;;15.02;11.38;;;10.60;99.90;;;;;;4984753;28;36789;-80
2024/04/04 04:12:46;;;;;;;13.90;9.98;;;10.60;99.90;;;;;;4984003;28;38251;-81
2024/04/04 04:15:13;;;;;;;13.88;9.13;;;10.60;99.90;;;;;;4988855;28;39914;-80
2024/04/04 04:17:39;;;;;;;13.18;8.55;;;10.60;99.90;;;;;;4991637;28;39341;-80
2024/04/04 04:21:17;;;;;;;15.02;9.20;;;10.60;99.90;;;;;;4992702;28;37506;-80
2024/04/04 04:22:56;;;;;;;9.80;7.20;;;10.60;99.90;;;;;;4984706;28;49277;-80
2024/04/04 04:25:23;;;;;;;11.50;7.45;;;10.70;99.90;;;;;;5004476;28;37243;-79
2024/04/04 04:27:54;;;;;;;10.77;7.70;;;10.80;99.90;;;;;;5005623;28;36268;-81
2024/04/04 04:30:21;;;;;;;12.30;7.78;;;10.80;99.90;;;;;;4987605;28;37356;-79
2024/04/04 04:32:47;;;;;;;10.50;6.72;;;10.80;99.90;;;;;;4985659;28;39515;-79
2024/04/04 04:35:13;;;;;;;10.05;7.75;;;10.80;99.90;;;;;;4989181;28;38078;-81
2024/04/04 04:37:39;;;;;;;11.57;8.18;;;10.80;99.90;;;;;;4992906;28;37014;-79
2024/04/04 04:40:10;;;;;;;13.60;8.57;;;10.80;99.90;;;;;;4993112;28;37953;-79
2024/04/04 04:42:45;;;;;;;9.25;6.88;;;10.80;99.90;;;;;;4987838;28;39524;-79
2024/04/04 04:45:11;;;;;;;10.70;7.32;;;10.80;99.90;;;;;;4990279;28;39721;-80
2024/04/04 04:47:37;;;;;;;14.90;7.93;;;10.90;99.90;;;;;;4981187;28;38137;-81
2024/04/04 04:50:04;;;;;;;9.05;7.18;;;10.90;99.90;;;;;;4999121;28;37381;-81
2024/04/04 04:52:33;;;;;;;14.68;7.90;;;10.90;99.90;;;;;;4992462;28;48255;-80
2024/04/04 04:54:59;;;;;;;13.43;7.63;;;10.90;99.90;;;;;;5001822;28;39029;-81
2024/04/04 04:57:35;;;;;;;17.92;8.23;;;10.90;99.90;;;;;;4999233;28;39565;-81
2024/04/04 05:00:09;;;;;;;9.73;6.22;;;10.90;99.90;;;;;;4996154;28;37411;-82
2024/04/04 05:02:36;;;;;;;9.02;6.03;;;11.00;99.90;;;;;;4992044;28;39246;-80
2024/04/04 05:05:13;;;;;;;8.20;5.97;;;11.00;99.90;;;;;;5016682;28;39998;-81
2024/04/04 05:07:41;;;;;;;8.68;5.70;;;11.00;99.90;;;;;;4998797;28;48627;-81
2024/04/04 05:10:07;;;;;;;8.38;5.43;;;11.10;99.90;;;;;;4994651;28;37392;-80
2024/04/04 05:12:39;;;;;;;9.95;6.40;;;11.10;99.90;;;;;;4994398;28;38680;-81
2024/04/04 05:15:18;;;;;;;6.63;5.25;;;11.10;99.90;;;;;;4991143;28;37486;-81
2024/04/04 05:17:53;;;;;;;8.27;4.75;;;11.10;99.90;;;;;;4991259;28;38122;-81
2024/04/04 05:21:00;;;;;;;8.98;4.00;;;11.10;99.90;;;;;;4982331;28;38412;-81
2024/04/04 05:23:28;;;;;;;3.75;2.90;;;11.00;99.90;;;;;;4993597;28;38920;-81
2024/04/04 05:25:54;;;;;;;3.20;2.30;;;11.00;99.90;;;;;;4995821;28;37083;-80
2024/04/04 05:28:25;;;;;;;5.20;2.95;;;11.00;99.90;;;;;;4986214;28;36971;-81
2024/04/04 05:30:55;;;;;;;4.28;1.60;;;11.00;99.90;;;;;;4991102;28;35935;-80
2024/04/04 05:33:21;;;;;;;3.37;1.60;;;11.00;99.90;;;;;;4987539;28;39977;-80
2024/04/04 05:35:48;;;;;;;4.60;1.50;;;11.10;99.90;;;;;;4988481;28;38327;-81
2024/04/04 05:38:14;;;;;;;2.67;1.48;;;11.10;99.90;;;;;;4993524;28;36786;-80
2024/04/04 05:40:40;;;;;;;3.45;1.58;;;11.10;99.90;;;;;;4985912;28;37655;-81
2024/04/04 05:43:06;;;;;;;1.98;1.30;;;11.10;99.90;;;;;;4996915;28;39697;-80
2024/04/04 05:45:33;;;;;;;5.68;2.60;;;11.10;99.90;;;;;;4994473;28;39114;-81
2024/04/04 05:47:59;;;;;;;5.82;2.53;;;11.20;99.90;;;;;;4986092;28;37757;-80
2024/04/04 05:50:27;;;;;;;7.78;2.40;;;11.20;99.90;;;;;;4982269;28;36971;-80
2024/04/04 05:52:53;;;;;;;5.05;4.15;;;11.20;99.90;;;;;;4979843;28;38281;-80
2024/04/04 05:55:19;;;;;;;9.18;4.00;;;11.20;99.90;;;;;;4988563;28;38872;-80
2024/04/04 05:57:45;;;;;;;11.60;4.37;;;11.30;99.90;;;;;;4988683;28;37966;-80
2024/04/04 06:00:13;;;;;;;12.02;4.35;;;11.40;99.90;;;;;;4995713;28;38664;-81
2024/04/04 06:02:49;;;;;;;12.82;4.40;;;11.40;99.90;;;;;;4997186;28;37757;-81
2024/04/04 06:05:18;;;;;;;9.23;4.70;;;11.40;99.90;;;;;;4996171;28;39247;-83
2024/04/04 06:14:01;;;;;;;15.97;5.93;;;11.70;99.90;;;;;;5676510;23;20029;31
2024/04/04 06:24:10;;;;;;;16.13;5.03;;;11.80;99.90;;;;;;5109566;27;1635267;-82
2024/04/04 06:26:37;;;;;;;13.77;3.72;;;11.80;99.90;;;;;;5137147;27;37629;-84
2024/04/04 06:29:03;;;;;;;14.65;4.13;;;11.80;99.90;;;;;;5116643;27;38632;-84
2024/04/04 06:31:29;;;;;;;13.25;3.65;;;11.80;99.90;;;;;;5137115;27;37504;-84
2024/04/04 06:33:56;;;;;;;14.50;4.65;;;11.80;99.90;;;;;;5132999;27;37461;-83
2024/04/04 06:36:22;;;;;;;10.07;4.90;;;11.80;99.90;;;;;;5132445;27;36167;-83
2024/04/04 06:39:02;;;;;;;10.43;4.28;;;11.80;99.90;;;;;;5138588;27;37432;-82
2024/04/04 06:41:28;;;;;;;20.45;5.95;;;11.80;99.90;;;;;;5135471;27;49156;-82
2024/04/04 06:43:54;;;;;;;17.52;5.78;;;11.80;99.90;;;;;;5135692;27;38962;-82
2024/04/04 06:46:20;;;;;;;15.07;5.13;;;11.80;99.90;;;;;;5131647;27;40605;-82
2024/04/04 06:48:47;;;;;;;10.55;4.47;;;11.80;99.90;;;;;;5126278;27;40560;-83
2024/04/04 06:51:13;;;;;;;14.98;4.82;;;11.80;99.90;;;;;;5137890;27;38682;-83
2024/04/04 06:53:40;;;;;;;10.88;4.22;;;11.80;99.90;;;;;;5138899;27;38378;-82
2024/04/04 06:56:06;;;;;;;13.38;3.80;;;11.90;99.90;;;;;;5137216;27;38071;-83
2024/04/04 06:58:32;;;;;;;8.95;3.40;;;11.90;99.90;;;;;;5133449;27;37266;-83
2024/04/04 07:00:59;;;;;;;12.43;3.55;;;11.90;99.90;;;;;;5136379;27;39496;-82
2024/04/04 07:03:26;;;;;;;11.02;3.30;;;11.90;99.90;;;;;;5135637;27;37135;-82
2024/04/04 07:05:52;;;;;;;13.75;4.22;;;11.90;99.90;;;;;;5132575;27;36758;-83
2024/04/04 07:08:19;;;;;;;12.55;3.47;;;11.90;99.90;;;;;;5132394;27;38484;-84
2024/04/04 07:10:46;;;;;;;14.85;4.20;;;11.90;99.90;;;;;;5133111;27;38889;-83
2024/04/04 07:13:14;;;;;;;10.57;3.35;;;11.90;99.90;;;;;;5136248;27;37869;-83
2024/04/04 07:15:41;;;;;;;10.10;3.78;;;12.00;99.90;;;;;;5137432;27;39602;-83
2024/04/04 07:18:09;;;;;;;9.38;4.00;;;12.00;99.90;;;;;;5130198;27;38548;-83
2024/04/04 07:20:39;;;;;;;11.05;3.05;;;12.00;99.90;;;;;;5132754;27;39249;-83
2024/04/04 07:23:05;;;;;;;12.60;3.13;;;12.00;99.90;;;;;;5134363;27;37168;-85
2024/04/04 07:25:32;;;;;;;10.77;3.08;;;12.10;99.90;;;;;;5134035;27;38351;-82
2024/04/04 07:28:00;;;;;;;14.80;2.92;;;12.10;99.90;;;;;;5133861;27;38847;-83
2024/04/04 07:30:28;;;;;;;10.50;2.70;;;12.10;99.90;;;;;;5127958;27;37495;-83
2024/04/04 07:32:54;;;;;;;8.40;2.33;;;12.10;99.90;;;;;;5130378;27;38599;-82
2024/04/04 07:35:21;;;;;;;14.55;2.60;;;12.10;99.90;;;;;;5127853;27;37769;-82
2024/04/04 07:37:47;;;;;;;9.73;2.17;;;12.10;99.90;;;;;;5115877;27;38326;-84
2024/04/04 07:40:13;;;;;;;6.72;2.28;;;12.20;99.90;;;;;;5122366;27;39585;-82
2024/04/04 07:42:39;;;;;;;13.77;2.58;;;12.10;99.90;;;;;;5114208;27;39708;-82
2024/04/04 07:45:06;;;;;;;12.00;3.00;;;12.10;99.90;;;;;;5113396;27;37434;-82
2024/04/04 07:47:32;;;;;;;12.50;2.67;;;12.20;99.90;;;;;;5122031;27;36953;-82
2024/04/04 07:50:03;;;;;;;8.88;2.75;;;12.10;99.90;;;;;;5124184;27;38813;-82
2024/04/04 07:52:29;;;;;;;10.15;2.63;;;12.10;99.90;;;;;;5111915;27;39728;-84
2024/04/04 07:54:55;;;;;;;10.65;2.63;;;12.10;99.90;;;;;;5116971;27;39188;-82
2024/04/04 07:57:23;;;;;;;13.50;2.88;;;12.10;99.90;;;;;;5113785;27;36577;-83
2024/04/04 07:59:49;;;;;;;8.68;2.90;;;12.00;99.90;;;;;;5117074;27;37977;-84
2024/04/04 08:02:16;;;;;;;5.50;2.08;;;12.00;99.90;;;;;;5123623;27;38788;-83
2024/04/04 08:04:43;;;;;;;9.43;2.92;;;11.90;99.90;;;;;;5113554;27;35559;-82
2024/04/04 08:07:12;;;;;;;9.88;2.35;;;11.90;99.90;;;;;;5132859;27;37672;-83
2024/04/04 08:09:39;;;;;;;7.78;2.60;;;11.90;99.90;;;;;;5119726;27;37867;-83
2024/04/04 08:12:05;;;;;;;8.52;2.28;;;11.90;99.90;;;;;;5116776;27;38555;-82
2024/04/04 08:14:32;;;;;;;5.85;1.95;;;11.90;99.90;;;;;;5120308;27;37783;-84
2024/04/04 08:16:59;;;;;;;6.47;1.63;;;11.90;99.90;;;;;;5118778;27;39489;-82
2024/04/04 08:19:25;;;;;;;8.10;1.70;;;11.90;99.90;;;;;;5120397;27;39593;-82
2024/04/04 08:21:52;;;;;;;2.72;1.40;;;12.00;99.90;;;;;;5118917;27;38880;-84
2024/04/04 08:24:18;;;;;;;6.65;1.88;;;12.10;99.90;;;;;;5123181;27;37872;-84
2024/04/04 08:26:45;;;;;;;4.97;1.90;;;12.10;99.90;;;;;;5123451;27;39215;-83
2024/04/04 08:29:13;;;;;;;9.68;2.47;;;12.10;99.90;;;;;;5117831;27;41951;-82
2024/04/04 08:31:39;;;;;;;12.32;2.20;;;12.10;99.90;;;;;;5121723;27;39295;-83
2024/04/04 08:34:05;;;;;;;10.20;2.40;;;12.00;99.90;;;;;;5119851;27;36966;-83
2024/04/04 08:36:31;;;;;;;10.45;2.83;;;12.00;99.90;;;;;;5118555;27;37176;-84
2024/04/04 08:38:57;;;;;;;9.43;2.85;;;11.90;99.90;;;;;;5125229;27;37675;-83
2024/04/04 08:41:23;;;;;;;8.40;2.35;;;11.90;99.90;;;;;;5119549;27;37046;-83
2024/04/04 08:43:50;;;;;;;11.32;2.50;;;11.80;99.90;;;;;;5119853;27;38713;-82
2024/04/04 08:46:17;;;;;;;11.02;2.55;;;11.80;99.90;;;;;;5119411;27;36099;-82
2024/04/04 08:48:44;;;;;;;14.02;2.60;;;11.70;99.90;;;;;;5118839;27;40185;-83
2024/04/04 08:51:12;;;;;;;15.20;2.33;;;11.70;99.90;;;;;;5120044;27;39090;-83
2024/04/04 08:53:38;;;;;;;15.25;2.80;;;11.60;99.90;;;;;;5120973;27;37794;-84
2024/04/04 08:56:05;;;;;;;16.05;3.13;;;11.70;99.90;;;;;;5121253;27;37213;-84
2024/04/04 08:58:31;;;;;;;15.77;2.70;;;11.90;99.90;;;;;;5122554;27;39266;-78
2024/04/04 09:00:58;;;;;;;17.85;3.35;;;12.20;99.90;;;;;;5125512;27;39330;-81
2024/04/04 09:03:24;;;;;;;9.43;2.60;;;12.50;99.90;;;;;;5121444;27;36571;-82
2024/04/04 09:05:50;;;;;;;9.65;2.20;;;12.50;99.90;;;;;;5119480;27;36353;-83
2024/04/04 09:08:17;;;;;;;9.23;2.03;;;12.50;99.90;;;;;;5121872;27;37634;-83
2024/04/04 09:10:45;;;;;;;8.27;1.98;;;12.60;99.90;;;;;;5121563;27;39044;-81
2024/04/04 09:13:12;;;;;;;8.68;1.35;;;12.60;99.90;;;;;;5116831;27;38055;-82
2024/04/04 09:15:40;;;;;;;6.85;1.80;;;12.60;99.90;;;;;;5120700;27;38846;-82
2024/04/04 09:18:10;;;;;;;11.55;1.60;;;12.70;99.90;;;;;;5120771;27;38693;-80
2024/04/04 09:20:40;;;;;;;7.28;1.42;;;12.70;99.90;;;;;;5119861;27;38166;-82
2024/04/04 09:23:08;;;;;;;8.35;1.55;;;12.80;99.90;;;;;;5114315;27;38178;-81
2024/04/04 09:25:35;;;;;;;10.40;1.55;;;12.90;99.90;;;;;;5116962;27;37860;-81
2024/04/04 09:28:08;;;;;;;9.18;1.75;;;12.90;99.90;;;;;;5118990;27;37666;-81
2024/04/04 09:30:38;;;;;;;12.25;2.65;;;12.90;99.90;;;;;;5121682;27;38453;-82
2024/04/04 09:33:06;;;;;;;12.35;1.83;;;13.00;99.90;;;;;;5115828;27;37807;-82
2024/04/04 09:35:33;;;;;;;9.00;1.83;;;13.20;99.90;;;;;;5121385;27;36836;-82
2024/04/04 09:37:59;;;;;;;9.35;1.58;;;13.20;65.00;;;;;;5121925;27;39277;-81
2024/04/04 09:40:26;;;;;;;7.90;1.27;;;13.30;89.20;;;;;;5121582;27;38248;-81
2024/04/04 09:42:53;;;;;;;10.73;1.85;;;13.40;54.50;;;;;;5125785;27;37626;-82
2024/04/04 09:45:20;;;;;;;9.73;1.63;;;13.70;75.20;;;;;;5117926;27;37480;-82
2024/04/04 09:47:47;;;;;;;8.05;1.55;;;13.90;26.60;;;;;;5121975;27;38732;-81
2024/04/04 09:50:18;;;;;;;14.27;1.85;;;13.80;20.80;;;;;;5116427;27;38398;-81
2024/04/04 09:52:46;;;;;;;13.07;1.75;;;13.60;6.60;;;;;;5121504;27;38695;-80
2024/04/04 09:55:19;;;;;;;9.55;1.38;;;13.50;8.80;;;;;;5118626;27;38344;-83
2024/04/04 09:57:47;;;;;;;8.82;1.77;;;13.60;20.20;;;;;;5119455;27;39005;-81
2024/04/04 10:00:16;;;;;;;7.93;1.70;;;13.60;2.90;;;;;;5141599;27;39640;-82
2024/04/04 10:03:00;;;;;;;11.63;1.75;;;13.80;14.70;;;;;;5116750;27;36300;-83
2024/04/04 10:05:34;;;;;;;10.73;2.13;;;14.00;1.00;;;;;;5118596;27;39202;-81
2024/04/04 10:08:13;;;;;;;11.90;2.03;;;14.30;1.00;;;;;;5121206;27;38560;-81
2024/04/04 10:10:45;;;;;;;21.00;2.63;;;14.60;1.00;;;;;;5135700;27;47588;-82
2024/04/04 10:13:12;;;;;;;14.93;2.63;;;14.70;1.00;;;;;;5121958;27;39169;-82
2024/04/04 10:15:48;;;;;;;12.45;2.13;;;14.90;1.00;;;;;;5116239;27;40838;-81
2024/04/04 10:18:19;;;;;;;15.45;2.65;;;15.00;1.00;;;;;;5127165;27;38862;-80
2024/04/04 10:20:52;;;;;;;18.33;3.42;;;14.90;1.00;;;;;;5133962;27;37356;-79
2024/04/04 10:23:26;;;;;;;14.20;2.33;;;15.00;1.00;;;;;;5114052;27;38149;-81
2024/04/04 10:25:52;;;;;;;14.73;2.50;;;15.10;1.00;;;;;;5117142;27;40850;-80
2024/04/04 10:28:18;;;;;;;12.70;3.25;;;15.10;1.00;;;;;;5121050;27;37587;-81
2024/04/04 10:30:47;;;;;;;20.98;3.40;;;15.20;1.00;;;;;;5117896;27;38560;-81
2024/04/04 10:33:15;;;;;;;17.63;2.67;;;15.30;1.00;;;;;;5117424;27;36622;-80
2024/04/04 10:35:41;;;;;;;19.23;2.95;;;15.20;1.00;;;;;;5124156;27;36257;-82
2024/04/04 10:38:12;;;;;;;14.95;2.75;;;15.10;1.00;;;;;;5118444;27;37867;-82
2024/04/04 10:40:41;;;;;;;15.10;2.80;;;15.20;1.00;;;;;;5118433;27;38390;-81
2024/04/04 10:43:08;;;;;;;17.42;3.65;;;15.30;1.00;;;;;;5108178;27;37734;-80
2024/04/04 10:45:38;;;;;;;18.00;3.03;;;15.30;1.00;;;;;;5108309;27;36872;-81
2024/04/04 10:48:05;;;;;;;24.85;3.53;;;15.30;1.00;;;;;;5118503;27;37505;-80
2024/04/04 10:50:34;;;;;;;18.95;3.30;;;15.20;1.00;;;;;;5122084;27;37958;-80
2024/04/04 10:53:01;;;;;;;19.33;3.55;;;15.00;1.00;;;;;;5117926;27;37584;-80
2024/04/04 10:55:28;;;;;;;17.05;3.00;;;14.70;1.00;;;;;;5116173;27;47546;-79
2024/04/04 10:57:55;;;;;;;19.55;3.38;;;14.90;1.00;;;;;;5117979;27;37607;-80
2024/04/04 11:00:26;;;;;;;21.77;3.40;;;15.00;1.00;;;;;;5122324;27;37224;-82
2024/04/04 11:02:52;;;;;;;17.20;3.42;;;15.20;1.00;;;;;;5122674;27;48307;-81
2024/04/04 11:05:19;;;;;;;15.93;3.13;;;15.40;1.00;;;;;;5121060;27;35926;-82
2024/04/04 11:07:46;;;;;;;25.77;4.25;;;15.20;1.00;;;;;;5120636;27;37726;-83
2024/04/04 11:10:14;;;;;;;14.75;3.00;;;15.10;1.00;;;;;;5120615;27;38196;-82
2024/04/04 11:12:41;;;;;;;21.50;3.70;;;15.00;1.00;;;;;;5120019;27;39418;-80
2024/04/04 11:15:08;;;;;;;25.52;4.07;;;15.20;1.00;;;;;;5119181;27;35420;-81
2024/04/04 11:17:36;;;;;;;29.30;4.47;;;15.30;1.00;;;;;;5119272;27;38607;-81
2024/04/04 11:20:04;;;;;;;28.88;4.72;;;15.30;1.00;;;;;;5125269;27;37878;-81
2024/04/04 11:22:36;;;;;;;28.63;6.05;;;15.20;1.00;;;;;;5121066;27;47453;-81
2024/04/04 11:25:05;;;;;;;33.97;6.25;;;15.10;1.00;;;;;;5126578;27;36409;-82
2024/04/04 11:27:39;;;;;;;28.35;5.22;;;15.30;1.00;;;;;;5132430;27;47380;-81
2024/04/04 11:30:14;;;;;;;32.50;6.35;;;15.40;1.00;;;;;;5122818;27;37537;-80
2024/04/04 11:32:40;;;;;;;35.55;6.05;;;15.60;1.00;;;;;;5117912;27;40064;-81
2024/04/04 11:35:08;;;;;;;33.03;6.18;;;15.80;1.00;;;;;;5122022;27;36891;-81
2024/04/04 11:37:35;;;;;;;33.95;7.40;;;15.60;1.00;;;;;;5118362;27;47753;-81
2024/04/04 11:40:03;;;;;;;35.03;6.78;;;15.30;1.00;;;;;;5117743;27;37895;-80
2024/04/04 11:42:29;;;;;;;39.15;7.68;;;15.20;1.00;;;;;;5134943;27;38258;-81
2024/04/04 11:44:55;;;;;;;31.23;6.30;;;15.70;1.00;;;;;;5123603;27;37605;-82
2024/04/04 11:47:21;;;;;;;33.75;6.10;;;15.90;1.00;;;;;;5122625;27;38577;-80
2024/04/04 11:49:48;;;;;;;36.20;7.25;;;16.00;1.00;;;;;;5123960;27;38850;-81
2024/04/04 11:52:14;;;;;;;37.97;6.75;;;16.00;1.00;;;;;;5121080;27;38022;-80
2024/04/04 11:54:40;;;;;;;34.25;6.30;;;16.20;1.00;;;;;;5123063;27;36442;-81
2024/04/04 11:57:06;;;;;;;29.88;6.38;;;16.10;1.00;;;;;;5121305;27;39289;-82
2024/04/04 11:59:32;;;;;;;32.75;7.03;;;15.90;1.00;;;;;;5128806;27;38869;-91
2024/04/04 12:01:59;;;;;;;35.72;6.25;;;16.00;1.00;;;;;;5128049;27;38898;-87
2024/04/04 12:04:25;;;;;;;42.55;7.10;;;16.20;1.00;;;;;;5126101;27;38080;-88
2024/04/04 12:06:52;;;;;;;39.22;6.97;;;16.40;1.00;;;;;;5130536;27;39543;-87
2024/04/04 12:09:18;;;;;;;38.50;6.78;;;16.40;1.00;;;;;;5126231;27;39781;-87
2024/04/04 12:11:44;;;;;;;36.53;7.07;;;16.20;1.00;;;;;;5133635;27;38534;-88
2024/04/04 12:14:12;;;;;;;27.33;5.45;;;15.90;1.00;;;;;;5124285;27;35925;-87
2024/04/04 12:16:40;;;;;;;34.40;6.90;;;15.70;1.00;;;;;;5147128;27;39762;-87
2024/04/04 12:21:52;;;;;;;35.72;6.75;;;15.70;1.00;;;;;;5124459;27;39447;-86
2024/04/04 12:24:22;;;;;;;44.47;8.95;;;15.60;1.00;;;;;;5126704;27;37497;-86
2024/04/04 12:26:50;;;;;;;42.35;8.48;;;15.80;1.00;;;;;;5135179;27;37872;-85
2024/04/04 12:29:19;;;;;;;35.75;6.75;;;15.70;1.00;;;;;;5137170;27;39250;-86
2024/04/04 12:31:46;;;;;;;29.27;7.03;;;15.50;1.00;;;;;;5135023;27;38022;-86
2024/04/04 12:34:12;;;;;;;43.42;6.80;;;15.30;1.00;;;;;;5144244;27;36050;-85
2024/04/04 12:36:38;;;;;;;40.55;7.35;;;15.50;1.00;;;;;;5138996;27;39313;-84
2024/04/04 12:39:12;;;;;;;36.72;6.13;;;15.80;1.00;;;;;;5134072;27;38118;-87
2024/04/04 12:41:38;;;;;;;30.00;5.70;;;15.90;1.00;;;;;;5129428;27;38577;-85
2024/04/04 12:44:04;;;;;;;30.15;5.70;;;15.90;1.00;;;;;;5127644;27;37998;-86
2024/04/04 12:46:32;;;;;;;25.48;5.40;;;16.00;1.00;;;;;;5126680;27;39421;-87
2024/04/04 12:48:59;;;;;;;28.50;6.28;;;16.00;1.00;;;;;;5127813;27;39757;-87
2024/04/04 12:51:26;;;;;;;27.98;5.10;;;15.80;1.00;;;;;;5126760;27;37339;-86
2024/04/04 12:53:53;;;;;;;29.13;5.75;;;16.00;1.00;;;;;;5128370;27;37136;-86
2024/04/04 12:56:22;;;;;;;30.17;6.18;;;16.00;1.00;;;;;;5129277;27;38846;-84
2024/04/04 12:58:48;;;;;;;32.55;6.40;;;16.10;1.00;;;;;;5126928;27;40154;-85
2024/04/04 13:01:14;;;;;;;29.92;5.65;;;15.90;1.00;;;;;;5125287;27;38670;-85
2024/04/04 13:03:43;;;;;;;30.70;7.35;;;15.50;1.00;;;;;;5125376;27;35985;-85
2024/04/04 13:06:10;;;;;;;32.63;6.85;;;15.10;1.00;;;;;;5127497;27;38874;-84